Accueil
METAR-TAF:

METAR-TAF

Aéroports :

Aéroport de Bergerac-Dordogne-Périgord

Bergerac, France

latitude: 44-49N, longitude: 000-31E, altitude: 51 m

Observation

Le bulletin a été fait il y a 24 minutes, à 02:00 UTC
Vent 4 kt de ouest
Température 15°C
Humidité 82%
Pression 1022 hPa
Visibilité 10 km ou plus
pas de nuages en-dessous de 1500 mètres et pas de cumulonimbus.

METAR: LFBE 190200Z AUTO 27004KT CAVOK 15/12 Q1022 NOSIG

Heure: 04:24 (02:24 UTC)

Prévision

Le bulletin a été fait il y a 3 heures et 24 minutes, à 23:00 UTC
Prévision valable du 19 à 00 UTC au 19 à 24 UTC
Vent 5 kt de ouest
Visibilité 10 km ou plus
pas de nuages en-dessous de 1500 mètres et pas de cumulonimbus.
Evoluant progressivement
du 19 à 09 UTC au 19 à 12 UTC
Vent 10 kt de nord
Evoluant progressivement
du 19 à 21 UTC au 19 à 23 UTC
Vent 5 kt de ouest

TAF: LFBE 182300Z 1900/1924 27005KT CAVOK BECMG 1909/1912 36010KT BECMG 1921/1923 27005KT

Observations et prévisions météorologiques de plus de 4000 aéroports (messages METAR et TAF).

Les stations disponibles sont représentées par des disques jaunes et rouges sur la carte.

Passer la souris dessus pour voir le nom de la station.

Cliquer dessus pour voir les observations et prévisions météorologiques.

Pour changer de carte: cliquez sur les boutons verts avec une croix noire pour zoomer, sur le bouton vert avec un tiret pour effectuer un zoom arrière, ou sur les flèches vertes pour les cartes adjacentes.


METAR-TAF: